sensor_id;sensor_type;location;lat;lon;timestamp;pressure;altitude;pressure_sealevel;temperature;humidity
51067;BME280;37112;45.892;-123.962;2023-02-10T00:01:04;101744.98;;;12.05;42.81
51067;BME280;37112;45.892;-123.962;2023-02-10T00:03:18;101751.45;;;12.01;41.07
51067;BME280;37112;45.892;-123.962;2023-02-10T00:05:31;101749.61;;;11.99;40.54
51067;BME280;37112;45.892;-123.962;2023-02-10T00:07:45;101740.34;;;11.99;40.84
51067;BME280;37112;45.892;-123.962;2023-02-10T00:09:58;101730.58;;;12.02;42.51
51067;BME280;37112;45.892;-123.962;2023-02-10T00:12:11;101731.70;;;12.07;41.59
51067;BME280;37112;45.892;-123.962;2023-02-10T00:14:25;101726.27;;;12.12;41.00
51067;BME280;37112;45.892;-123.962;2023-02-10T00:16:38;101720.08;;;12.14;39.73
51067;BME280;37112;45.892;-123.962;2023-02-10T00:18:51;101720.59;;;12.15;42.31
51067;BME280;37112;45.892;-123.962;2023-02-10T00:21:12;101715.51;;;12.13;40.84
51067;BME280;37112;45.892;-123.962;2023-02-10T00:23:25;101709.35;;;12.12;41.08
51067;BME280;37112;45.892;-123.962;2023-02-10T00:25:39;101708.77;;;12.10;40.93
51067;BME280;37112;45.892;-123.962;2023-02-10T00:27:52;101699.90;;;12.06;39.23
51067;BME280;37112;45.892;-123.962;2023-02-10T00:30:07;101702.67;;;12.01;38.31
51067;BME280;37112;45.892;-123.962;2023-02-10T00:32:20;101706.84;;;11.97;40.11
51067;BME280;37112;45.892;-123.962;2023-02-10T00:34:34;101708.02;;;11.92;40.44
51067;BME280;37112;45.892;-123.962;2023-02-10T00:36:50;101710.46;;;11.89;41.36
51067;BME280;37112;45.892;-123.962;2023-02-10T00:39:05;101715.52;;;11.88;42.25
51067;BME280;37112;45.892;-123.962;2023-02-10T00:41:19;101698.41;;;11.88;42.98
51067;BME280;37112;45.892;-123.962;2023-02-10T00:43:34;101703.59;;;11.91;44.88
51067;BME280;37112;45.892;-123.962;2023-02-10T00:45:47;101707.27;;;11.95;46.21
51067;BME280;37112;45.892;-123.962;2023-02-10T00:48:02;101689.14;;;11.98;44.72
51067;BME280;37112;45.892;-123.962;2023-02-10T00:50:16;101692.53;;;12.01;44.10
51067;BME280;37112;45.892;-123.962;2023-02-10T00:52:32;101688.45;;;12.04;43.74
51067;BME280;37112;45.892;-123.962;2023-02-10T00:54:46;101691.02;;;12.05;44.27
51067;BME280;37112;45.892;-123.962;2023-02-10T00:56:59;101692.06;;;12.06;45.71
51067;BME280;37112;45.892;-123.962;2023-02-10T00:59:14;101692.13;;;12.05;45.53
51067;BME280;37112;45.892;-123.962;2023-02-10T01:01:27;101699.28;;;12.04;45.76
51067;BME280;37112;45.892;-123.962;2023-02-10T01:03:42;101704.11;;;12.04;45.58
51067;BME280;37112;45.892;-123.962;2023-02-10T01:05:55;101702.05;;;12.03;43.55
51067;BME280;37112;45.892;-123.962;2023-02-10T01:08:08;101703.66;;;12.03;44.06
51067;BME280;37112;45.892;-123.962;2023-02-10T01:10:22;101708.80;;;12.00;44.31
51067;BME280;37112;45.892;-123.962;2023-02-10T01:12:35;101708.91;;;11.98;44.65
51067;BME280;37112;45.892;-123.962;2023-02-10T01:14:48;101697.14;;;11.95;43.69
51067;BME280;37112;45.892;-123.962;2023-02-10T01:17:03;101691.39;;;11.93;42.90
51067;BME280;37112;45.892;-123.962;2023-02-10T01:19:17;101684.36;;;11.91;43.82
51067;BME280;37112;45.892;-123.962;2023-02-10T01:21:34;101693.30;;;11.91;43.65
51067;BME280;37112;45.892;-123.962;2023-02-10T01:23:52;101683.48;;;11.91;44.56
51067;BME280;37112;45.892;-123.962;2023-02-10T01:26:06;101683.91;;;11.93;44.43
51067;BME280;37112;45.892;-123.962;2023-02-10T01:28:19;101685.42;;;11.94;44.27
51067;BME280;37112;45.892;-123.962;2023-02-10T01:30:33;101681.95;;;11.96;45.50
51067;BME280;37112;45.892;-123.962;2023-02-10T01:32:46;101682.11;;;11.96;46.02
51067;BME280;37112;45.892;-123.962;2023-02-10T01:35:00;101675.72;;;11.96;46.95
51067;BME280;37112;45.892;-123.962;2023-02-10T01:37:14;101672.15;;;11.96;47.04
51067;BME280;37112;45.892;-123.962;2023-02-10T01:39:27;101670.61;;;11.98;47.29
51067;BME280;37112;45.892;-123.962;2023-02-10T01:41:42;101660.66;;;11.98;47.87
51067;BME280;37112;45.892;-123.962;2023-02-10T01:44:03;101656.65;;;11.96;48.55
51067;BME280;37112;45.892;-123.962;2023-02-10T01:46:16;101638.30;;;11.97;49.25
51067;BME280;37112;45.892;-123.962;2023-02-10T01:48:29;101633.73;;;11.96;50.79
51067;BME280;37112;45.892;-123.962;2023-02-10T01:50:45;101636.37;;;11.96;51.42
51067;BME280;37112;45.892;-123.962;2023-02-10T01:53:01;101646.35;;;11.96;51.74
51067;BME280;37112;45.892;-123.962;2023-02-10T01:55:18;101650.64;;;11.96;52.13
51067;BME280;37112;45.892;-123.962;2023-02-10T01:57:32;101657.54;;;11.96;52.89
51067;BME280;37112;45.892;-123.962;2023-02-10T01:59:48;101660.09;;;11.99;53.34
51067;BME280;37112;45.892;-123.962;2023-02-10T02:02:02;101659.86;;;12.00;53.78
51067;BME280;37112;45.892;-123.962;2023-02-10T02:04:17;101658.55;;;12.01;54.24
51067;BME280;37112;45.892;-123.962;2023-02-10T02:06:30;101663.61;;;12.02;55.43
51067;BME280;37112;45.892;-123.962;2023-02-10T02:08:43;101671.98;;;12.06;56.77
51067;BME280;37112;45.892;-123.962;2023-02-10T02:11:06;101676.86;;;12.07;57.46
51067;BME280;37112;45.892;-123.962;2023-02-10T02:13:32;101684.77;;;12.09;59.39
51067;BME280;37112;45.892;-123.962;2023-02-10T02:15:53;101691.95;;;12.08;60.29
51067;BME280;37112;45.892;-123.962;2023-02-10T02:18:15;101697.11;;;12.02;62.49
51067;BME280;37112;45.892;-123.962;2023-02-10T02:20:55;101698.33;;;11.93;64.21
51067;BME280;37112;45.892;-123.962;2023-02-10T02:26:18;101712.04;;;11.71;68.34
51067;BME280;37112;45.892;-123.962;2023-02-10T02:28:38;101721.34;;;11.57;68.87
51067;BME280;37112;45.892;-123.962;2023-02-10T02:33:39;101717.73;;;11.29;70.18
51067;BME280;37112;45.892;-123.962;2023-02-10T02:35:59;101710.83;;;11.15;70.74
51067;BME280;37112;45.892;-123.962;2023-02-10T02:38:14;101727.16;;;11.03;72.27
51067;BME280;37112;45.892;-123.962;2023-02-10T02:40:27;101723.98;;;10.92;72.26
51067;BME280;37112;45.892;-123.962;2023-02-10T02:42:42;101725.45;;;10.84;71.42
51067;BME280;37112;45.892;-123.962;2023-02-10T02:44:57;101725.64;;;10.77;73.06
51067;BME280;37112;45.892;-123.962;2023-02-10T02:47:17;101726.22;;;10.70;74.41
51067;BME280;37112;45.892;-123.962;2023-02-10T02:49:37;101735.98;;;10.60;76.52
51067;BME280;37112;45.892;-123.962;2023-02-10T02:52:00;101736.56;;;10.48;78.62
51067;BME280;37112;45.892;-123.962;2023-02-10T02:54:24;101731.96;;;10.38;79.40
51067;BME280;37112;45.892;-123.962;2023-02-10T02:56:42;101734.00;;;10.29;80.07
51067;BME280;37112;45.892;-123.962;2023-02-10T02:58:59;101731.60;;;10.24;80.30
51067;BME280;37112;45.892;-123.962;2023-02-10T03:01:17;101732.20;;;10.22;79.29
51067;BME280;37112;45.892;-123.962;2023-02-10T03:03:32;101730.84;;;10.20;80.45
51067;BME280;37112;45.892;-123.962;2023-02-10T03:05:48;101735.52;;;10.19;82.19
51067;BME280;37112;45.892;-123.962;2023-02-10T03:08:01;101729.81;;;10.19;82.29
51067;BME280;37112;45.892;-123.962;2023-02-10T03:10:14;101735.56;;;10.18;82.95
51067;BME280;37112;45.892;-123.962;2023-02-10T03:12:27;101723.71;;;10.17;82.51
51067;BME280;37112;45.892;-123.962;2023-02-10T03:14:42;101719.52;;;10.16;82.86
51067;BME280;37112;45.892;-123.962;2023-02-10T03:16:55;101723.23;;;10.16;83.07
51067;BME280;37112;45.892;-123.962;2023-02-10T03:19:08;101720.55;;;10.17;84.45
51067;BME280;37112;45.892;-123.962;2023-02-10T03:21:21;101716.99;;;10.17;83.80
51067;BME280;37112;45.892;-123.962;2023-02-10T03:23:34;101719.78;;;10.18;84.60
51067;BME280;37112;45.892;-123.962;2023-02-10T03:25:48;101725.60;;;10.18;84.27
51067;BME280;37112;45.892;-123.962;2023-02-10T03:28:01;101722.02;;;10.19;85.76
51067;BME280;37112;45.892;-123.962;2023-02-10T03:30:16;101721.41;;;10.21;85.65
51067;BME280;37112;45.892;-123.962;2023-02-10T03:32:29;101726.70;;;10.22;86.07
51067;BME280;37112;45.892;-123.962;2023-02-10T03:34:45;101734.02;;;10.24;86.35
51067;BME280;37112;45.892;-123.962;2023-02-10T03:36:58;101737.14;;;10.26;85.27
51067;BME280;37112;45.892;-123.962;2023-02-10T03:39:12;101736.92;;;10.27;86.69
51067;BME280;37112;45.892;-123.962;2023-02-10T03:41:25;101739.45;;;10.26;87.44
51067;BME280;37112;45.892;-123.962;2023-02-10T03:43:38;101732.67;;;10.27;86.36
51067;BME280;37112;45.892;-123.962;2023-02-10T03:45:52;101733.58;;;10.26;87.19
51067;BME280;37112;45.892;-123.962;2023-02-10T03:48:05;101731.77;;;10.28;86.78
51067;BME280;37112;45.892;-123.962;2023-02-10T03:50:19;101739.56;;;10.28;87.67
51067;BME280;37112;45.892;-123.962;2023-02-10T03:52:32;101730.17;;;10.27;87.94
51067;BME280;37112;45.892;-123.962;2023-02-10T03:54:46;101741.52;;;10.27;87.62
51067;BME280;37112;45.892;-123.962;2023-02-10T03:56:59;101736.61;;;10.26;88.86
51067;BME280;37112;45.892;-123.962;2023-02-10T03:59:12;101742.67;;;10.25;88.58
51067;BME280;37112;45.892;-123.962;2023-02-10T04:01:25;101740.73;;;10.25;88.49
51067;BME280;37112;45.892;-123.962;2023-02-10T04:03:38;101744.30;;;10.25;88.32
51067;BME280;37112;45.892;-123.962;2023-02-10T04:05:53;101742.04;;;10.24;89.77
51067;BME280;37112;45.892;-123.962;2023-02-10T04:08:11;101745.27;;;10.24;88.88
51067;BME280;37112;45.892;-123.962;2023-02-10T04:10:24;101747.25;;;10.23;89.42
51067;BME280;37112;45.892;-123.962;2023-02-10T04:12:39;101737.67;;;10.23;90.51
51067;BME280;37112;45.892;-123.962;2023-02-10T04:14:53;101755.24;;;10.23;90.66
51067;BME280;37112;45.892;-123.962;2023-02-10T04:17:06;101747.96;;;10.23;90.12
51067;BME280;37112;45.892;-123.962;2023-02-10T04:19:19;101755.46;;;10.22;91.09
51067;BME280;37112;45.892;-123.962;2023-02-10T04:21:36;101764.92;;;10.20;91.78
51067;BME280;37112;45.892;-123.962;2023-02-10T04:23:50;101764.81;;;10.19;92.14
51067;BME280;37112;45.892;-123.962;2023-02-10T04:26:04;101763.48;;;10.17;91.74
51067;BME280;37112;45.892;-123.962;2023-02-10T04:28:17;101766.55;;;10.16;91.74
51067;BME280;37112;45.892;-123.962;2023-02-10T04:30:30;101780.56;;;10.16;91.12
51067;BME280;37112;45.892;-123.962;2023-02-10T04:32:44;101768.54;;;10.16;92.14
51067;BME280;37112;45.892;-123.962;2023-02-10T04:34:58;101776.21;;;10.14;92.48
51067;BME280;37112;45.892;-123.962;2023-02-10T04:37:14;101784.02;;;10.15;91.97
51067;BME280;37112;45.892;-123.962;2023-02-10T04:39:27;101784.92;;;10.14;92.40
51067;BME280;37112;45.892;-123.962;2023-02-10T04:41:41;101784.95;;;10.14;92.12
51067;BME280;37112;45.892;-123.962;2023-02-10T04:43:55;101784.83;;;10.13;93.22
51067;BME280;37112;45.892;-123.962;2023-02-10T04:46:09;101799.25;;;10.12;92.79
51067;BME280;37112;45.892;-123.962;2023-02-10T04:48:22;101802.34;;;10.10;92.43
51067;BME280;37112;45.892;-123.962;2023-02-10T04:50:35;101796.71;;;10.09;93.21
51067;BME280;37112;45.892;-123.962;2023-02-10T04:52:48;101793.00;;;10.08;93.09
51067;BME280;37112;45.892;-123.962;2023-02-10T04:55:02;101793.58;;;10.08;93.66
51067;BME280;37112;45.892;-123.962;2023-02-10T04:57:19;101811.91;;;10.07;93.74
51067;BME280;37112;45.892;-123.962;2023-02-10T04:59:34;101812.85;;;10.06;94.27
51067;BME280;37112;45.892;-123.962;2023-02-10T05:01:47;101816.62;;;10.05;94.74
51067;BME280;37112;45.892;-123.962;2023-02-10T05:04:01;101838.30;;;10.04;94.28
51067;BME280;37112;45.892;-123.962;2023-02-10T05:06:15;101844.73;;;10.02;93.93
51067;BME280;37112;45.892;-123.962;2023-02-10T05:08:30;101855.77;;;10.02;94.30
51067;BME280;37112;45.892;-123.962;2023-02-10T05:10:45;101854.74;;;10.01;93.24
51067;BME280;37112;45.892;-123.962;2023-02-10T05:12:59;101858.15;;;10.01;94.15
51067;BME280;37112;45.892;-123.962;2023-02-10T05:15:13;101864.20;;;10.00;93.66
51067;BME280;37112;45.892;-123.962;2023-02-10T05:17:26;101866.20;;;9.99;93.69
51067;BME280;37112;45.892;-123.962;2023-02-10T05:19:39;101864.48;;;9.98;94.00
51067;BME280;37112;45.892;-123.962;2023-02-10T05:21:54;101869.80;;;9.98;93.69
51067;BME280;37112;45.892;-123.962;2023-02-10T05:24:07;101873.82;;;9.99;93.58
51067;BME280;37112;45.892;-123.962;2023-02-10T05:26:21;101872.92;;;9.99;93.54
51067;BME280;37112;45.892;-123.962;2023-02-10T05:28:35;101879.86;;;9.99;93.60
51067;BME280;37112;45.892;-123.962;2023-02-10T05:30:49;101877.60;;;9.98;94.07
51067;BME280;37112;45.892;-123.962;2023-02-10T05:33:02;101882.48;;;9.97;93.50
51067;BME280;37112;45.892;-123.962;2023-02-10T05:35:15;101887.65;;;9.96;93.46
51067;BME280;37112;45.892;-123.962;2023-02-10T05:37:29;101887.36;;;9.94;93.50
51067;BME280;37112;45.892;-123.962;2023-02-10T05:39:56;101890.61;;;9.93;93.64
51067;BME280;37112;45.892;-123.962;2023-02-10T05:42:09;101893.72;;;9.91;93.64
51067;BME280;37112;45.892;-123.962;2023-02-10T05:44:22;101891.19;;;9.89;93.25
51067;BME280;37112;45.892;-123.962;2023-02-10T05:46:35;101895.75;;;9.86;92.37
51067;BME280;37112;45.892;-123.962;2023-02-10T05:48:49;101898.76;;;9.82;91.95
51067;BME280;37112;45.892;-123.962;2023-02-10T05:51:02;101906.40;;;9.77;91.50
51067;BME280;37112;45.892;-123.962;2023-02-10T05:53:16;101909.57;;;9.74;91.42
51067;BME280;37112;45.892;-123.962;2023-02-10T05:55:30;101917.09;;;9.73;91.51
51067;BME280;37112;45.892;-123.962;2023-02-10T05:57:44;101923.81;;;9.73;91.37
51067;BME280;37112;45.892;-123.962;2023-02-10T05:59:57;101932.52;;;9.73;91.65
51067;BME280;37112;45.892;-123.962;2023-02-10T06:02:20;101940.05;;;9.75;91.91
51067;BME280;37112;45.892;-123.962;2023-02-10T06:04:34;101944.02;;;9.77;92.32
51067;BME280;37112;45.892;-123.962;2023-02-10T06:06:47;101944.06;;;9.81;92.62
51067;BME280;37112;45.892;-123.962;2023-02-10T06:09:00;101951.20;;;9.84;92.91
51067;BME280;37112;45.892;-123.962;2023-02-10T06:11:13;101945.98;;;9.85;92.43
51067;BME280;37112;45.892;-123.962;2023-02-10T06:13:27;101941.77;;;9.84;92.51
51067;BME280;37112;45.892;-123.962;2023-02-10T06:15:40;101938.48;;;9.82;91.88
51067;BME280;37112;45.892;-123.962;2023-02-10T06:17:53;101937.65;;;9.82;91.51
51067;BME280;37112;45.892;-123.962;2023-02-10T06:20:09;101939.81;;;9.81;91.39
51067;BME280;37112;45.892;-123.962;2023-02-10T06:22:22;101944.81;;;9.80;91.36
51067;BME280;37112;45.892;-123.962;2023-02-10T06:24:36;101942.80;;;9.76;91.04
51067;BME280;37112;45.892;-123.962;2023-02-10T06:26:50;101943.48;;;9.73;90.92
51067;BME280;37112;45.892;-123.962;2023-02-10T06:29:03;101951.02;;;9.71;90.72
51067;BME280;37112;45.892;-123.962;2023-02-10T06:31:17;101952.83;;;9.71;90.54
51067;BME280;37112;45.892;-123.962;2023-02-10T06:33:32;101954.83;;;9.69;90.72
51067;BME280;37112;45.892;-123.962;2023-02-10T06:35:46;101961.19;;;9.70;90.73
51067;BME280;37112;45.892;-123.962;2023-02-10T06:37:59;101967.93;;;9.70;91.11
51067;BME280;37112;45.892;-123.962;2023-02-10T06:40:13;101969.85;;;9.71;90.88
51067;BME280;37112;45.892;-123.962;2023-02-10T06:42:26;101974.08;;;9.71;90.98
51067;BME280;37112;45.892;-123.962;2023-02-10T06:44:40;101971.38;;;9.72;90.91
51067;BME280;37112;45.892;-123.962;2023-02-10T06:46:52;101972.09;;;9.72;90.95
51067;BME280;37112;45.892;-123.962;2023-02-10T06:49:08;101976.14;;;9.73;90.89
51067;BME280;37112;45.892;-123.962;2023-02-10T06:51:21;101979.48;;;9.74;91.22
51067;BME280;37112;45.892;-123.962;2023-02-10T06:53:37;101983.41;;;9.77;91.07
51067;BME280;37112;45.892;-123.962;2023-02-10T06:55:51;101980.34;;;9.78;91.19
51067;BME280;37112;45.892;-123.962;2023-02-10T06:58:08;101982.23;;;9.80;91.04
51067;BME280;37112;45.892;-123.962;2023-02-10T07:00:22;101986.24;;;9.82;90.96
51067;BME280;37112;45.892;-123.962;2023-02-10T07:02:36;101986.36;;;9.83;90.80
51067;BME280;37112;45.892;-123.962;2023-02-10T07:04:49;101987.41;;;9.83;90.74
51067;BME280;37112;45.892;-123.962;2023-02-10T07:07:02;101989.35;;;9.84;90.55
51067;BME280;37112;45.892;-123.962;2023-02-10T07:09:15;101987.23;;;9.83;90.43
51067;BME280;37112;45.892;-123.962;2023-02-10T07:11:28;101986.02;;;9.83;90.41
51067;BME280;37112;45.892;-123.962;2023-02-10T07:13:42;101985.16;;;9.82;90.81
51067;BME280;37112;45.892;-123.962;2023-02-10T07:15:55;101988.05;;;9.81;90.60
51067;BME280;37112;45.892;-123.962;2023-02-10T07:18:08;101990.90;;;9.81;90.89
51067;BME280;37112;45.892;-123.962;2023-02-10T07:20:23;101988.23;;;9.81;91.03
51067;BME280;37112;45.892;-123.962;2023-02-10T07:22:36;101992.31;;;9.80;91.36
51067;BME280;37112;45.892;-123.962;2023-02-10T07:24:50;101995.86;;;9.81;91.27
51067;BME280;37112;45.892;-123.962;2023-02-10T07:27:03;101993.38;;;9.81;91.49
51067;BME280;37112;45.892;-123.962;2023-02-10T07:29:16;101997.42;;;9.82;91.52
51067;BME280;37112;45.892;-123.962;2023-02-10T07:31:30;102001.52;;;9.81;91.53
51067;BME280;37112;45.892;-123.962;2023-02-10T07:33:46;101994.61;;;9.81;91.92
51067;BME280;37112;45.892;-123.962;2023-02-10T07:36:00;102004.02;;;9.81;91.60
51067;BME280;37112;45.892;-123.962;2023-02-10T07:38:15;102004.89;;;9.81;91.83
51067;BME280;37112;45.892;-123.962;2023-02-10T07:40:28;102007.95;;;9.81;92.81
51067;BME280;37112;45.892;-123.962;2023-02-10T07:42:41;102005.45;;;9.80;92.07
51067;BME280;37112;45.892;-123.962;2023-02-10T07:45:20;102005.63;;;9.81;92.58
51067;BME280;37112;45.892;-123.962;2023-02-10T07:47:33;102009.23;;;9.79;92.69
51067;BME280;37112;45.892;-123.962;2023-02-10T07:49:47;102007.14;;;9.77;92.65
51067;BME280;37112;45.892;-123.962;2023-02-10T07:52:02;102009.67;;;9.76;92.61
51067;BME280;37112;45.892;-123.962;2023-02-10T07:54:15;102003.30;;;9.76;92.58
51067;BME280;37112;45.892;-123.962;2023-02-10T07:56:29;102007.93;;;9.76;92.90
51067;BME280;37112;45.892;-123.962;2023-02-10T07:58:43;102010.59;;;9.76;92.85
51067;BME280;37112;45.892;-123.962;2023-02-10T08:00:56;102014.90;;;9.75;93.00
51067;BME280;37112;45.892;-123.962;2023-02-10T08:03:14;102009.98;;;9.74;93.27
51067;BME280;37112;45.892;-123.962;2023-02-10T08:05:28;102010.08;;;9.71;93.58
51067;BME280;37112;45.892;-123.962;2023-02-10T08:07:41;102014.25;;;9.69;93.44
51067;BME280;37112;45.892;-123.962;2023-02-10T08:09:54;102014.62;;;9.69;93.79
51067;BME280;37112;45.892;-123.962;2023-02-10T08:12:08;102016.05;;;9.69;94.06
51067;BME280;37112;45.892;-123.962;2023-02-10T08:14:21;102017.06;;;9.70;93.91
51067;BME280;37112;45.892;-123.962;2023-02-10T08:16:34;102003.12;;;9.68;94.37
51067;BME280;37112;45.892;-123.962;2023-02-10T08:18:47;102010.13;;;9.67;94.36
51067;BME280;37112;45.892;-123.962;2023-02-10T08:21:03;102009.98;;;9.66;94.26
51067;BME280;37112;45.892;-123.962;2023-02-10T08:23:17;102004.15;;;9.65;93.81
51067;BME280;37112;45.892;-123.962;2023-02-10T08:25:32;102001.65;;;9.65;94.31
51067;BME280;37112;45.892;-123.962;2023-02-10T08:27:45;102005.40;;;9.65;94.34
51067;BME280;37112;45.892;-123.962;2023-02-10T08:30:00;102005.77;;;9.64;94.07
51067;BME280;37112;45.892;-123.962;2023-02-10T08:32:16;102006.67;;;9.64;93.94
51067;BME280;37112;45.892;-123.962;2023-02-10T08:34:29;102008.48;;;9.63;93.85
51067;BME280;37112;45.892;-123.962;2023-02-10T08:36:42;102001.73;;;9.64;93.88
51067;BME280;37112;45.892;-123.962;2023-02-10T08:38:57;102001.36;;;9.64;93.68
51067;BME280;37112;45.892;-123.962;2023-02-10T08:41:14;102002.58;;;9.64;93.91
51067;BME280;37112;45.892;-123.962;2023-02-10T08:43:27;102005.64;;;9.63;94.19
51067;BME280;37112;45.892;-123.962;2023-02-10T08:45:41;102002.09;;;9.63;93.93
51067;BME280;37112;45.892;-123.962;2023-02-10T08:47:56;102001.21;;;9.63;93.86
51067;BME280;37112;45.892;-123.962;2023-02-10T08:50:11;102003.85;;;9.64;93.80
51067;BME280;37112;45.892;-123.962;2023-02-10T08:52:25;102000.78;;;9.65;93.92
51067;BME280;37112;45.892;-123.962;2023-02-10T08:54:39;102009.66;;;9.65;93.88
51067;BME280;37112;45.892;-123.962;2023-02-10T08:56:55;102004.64;;;9.66;94.51
51067;BME280;37112;45.892;-123.962;2023-02-10T08:59:08;102009.90;;;9.68;94.46
51067;BME280;37112;45.892;-123.962;2023-02-10T09:01:24;102010.20;;;9.68;95.15
51067;BME280;37112;45.892;-123.962;2023-02-10T09:03:39;102012.33;;;9.69;95.35
51067;BME280;37112;45.892;-123.962;2023-02-10T09:05:52;102014.43;;;9.69;94.89
51067;BME280;37112;45.892;-123.962;2023-02-10T09:08:05;102019.38;;;9.70;94.62
51067;BME280;37112;45.892;-123.962;2023-02-10T09:10:18;102022.33;;;9.71;94.99
51067;BME280;37112;45.892;-123.962;2023-02-10T09:12:31;102029.45;;;9.70;95.88
51067;BME280;37112;45.892;-123.962;2023-02-10T09:14:45;102037.06;;;9.63;94.69
51067;BME280;37112;45.892;-123.962;2023-02-10T09:16:59;102038.43;;;9.51;94.53
51067;BME280;37112;45.892;-123.962;2023-02-10T09:19:12;102033.33;;;9.42;94.41
51067;BME280;37112;45.892;-123.962;2023-02-10T09:21:25;102027.60;;;9.35;94.12
51067;BME280;37112;45.892;-123.962;2023-02-10T09:23:54;102025.83;;;9.27;94.41
51067;BME280;37112;45.892;-123.962;2023-02-10T09:26:08;102024.48;;;9.25;95.09
51067;BME280;37112;45.892;-123.962;2023-02-10T09:28:23;102023.61;;;9.24;94.81
51067;BME280;37112;45.892;-123.962;2023-02-10T09:30:36;102023.02;;;9.25;95.57
51067;BME280;37112;45.892;-123.962;2023-02-10T09:32:54;102021.00;;;9.28;96.08
51067;BME280;37112;45.892;-123.962;2023-02-10T09:35:12;102020.02;;;9.30;96.12
51067;BME280;37112;45.892;-123.962;2023-02-10T09:37:26;102023.16;;;9.31;96.55
51067;BME280;37112;45.892;-123.962;2023-02-10T09:39:40;102025.55;;;9.29;95.71
51067;BME280;37112;45.892;-123.962;2023-02-10T09:42:01;102018.37;;;9.22;94.88
51067;BME280;37112;45.892;-123.962;2023-02-10T09:44:19;102015.84;;;9.19;94.78
51067;BME280;37112;45.892;-123.962;2023-02-10T09:46:43;102018.21;;;9.17;94.70
51067;BME280;37112;45.892;-123.962;2023-02-10T09:49:08;102026.95;;;9.16;94.66
51067;BME280;37112;45.892;-123.962;2023-02-10T09:51:36;102031.55;;;9.16;94.69
51067;BME280;37112;45.892;-123.962;2023-02-10T09:53:53;102029.71;;;9.18;94.78
51067;BME280;37112;45.892;-123.962;2023-02-10T09:56:09;102026.77;;;9.21;95.15
51067;BME280;37112;45.892;-123.962;2023-02-10T09:58:28;102026.63;;;9.24;95.10
51067;BME280;37112;45.892;-123.962;2023-02-10T10:00:45;102029.20;;;9.26;95.29
51067;BME280;37112;45.892;-123.962;2023-02-10T10:03:00;102031.42;;;9.29;95.21
51067;BME280;37112;45.892;-123.962;2023-02-10T10:05:19;102030.13;;;9.30;95.18
51067;BME280;37112;45.892;-123.962;2023-02-10T10:07:36;102029.02;;;9.31;94.86
51067;BME280;37112;45.892;-123.962;2023-02-10T10:09:55;102026.82;;;9.32;94.83
51067;BME280;37112;45.892;-123.962;2023-02-10T10:12:15;102028.17;;;9.34;94.81
51067;BME280;37112;45.892;-123.962;2023-02-10T10:14:33;102026.32;;;9.36;94.88
51067;BME280;37112;45.892;-123.962;2023-02-10T10:17:06;102026.40;;;9.38;94.78
51067;BME280;37112;45.892;-123.962;2023-02-10T10:19:32;102026.28;;;9.41;94.69
51067;BME280;37112;45.892;-123.962;2023-02-10T10:21:54;102027.96;;;9.43;94.64
51067;BME280;37112;45.892;-123.962;2023-02-10T10:24:17;102025.37;;;9.46;94.57
51067;BME280;37112;45.892;-123.962;2023-02-10T10:26:37;102026.63;;;9.45;94.49
51067;BME280;37112;45.892;-123.962;2023-02-10T10:29:04;102027.71;;;9.45;94.65
51067;BME280;37112;45.892;-123.962;2023-02-10T10:31:26;102027.21;;;9.44;94.57
51067;BME280;37112;45.892;-123.962;2023-02-10T10:33:55;102027.19;;;9.45;94.85
51067;BME280;37112;45.892;-123.962;2023-02-10T10:36:16;102028.35;;;9.46;94.76
51067;BME280;37112;45.892;-123.962;2023-02-10T10:38:32;102028.10;;;9.48;94.94
51067;BME280;37112;45.892;-123.962;2023-02-10T10:40:48;102032.09;;;9.51;94.74
51067;BME280;37112;45.892;-123.962;2023-02-10T10:43:03;102039.33;;;9.52;94.63
51067;BME280;37112;45.892;-123.962;2023-02-10T10:45:19;102036.63;;;9.52;94.56
51067;BME280;37112;45.892;-123.962;2023-02-10T10:47:40;102032.46;;;9.54;94.57
51067;BME280;37112;45.892;-123.962;2023-02-10T10:49:58;102032.52;;;9.57;94.58
51067;BME280;37112;45.892;-123.962;2023-02-10T10:52:29;102037.01;;;9.56;94.16
51067;BME280;37112;45.892;-123.962;2023-02-10T10:54:46;102037.27;;;9.54;93.89
51067;BME280;37112;45.892;-123.962;2023-02-10T10:57:02;102039.57;;;9.50;93.65
51067;BME280;37112;45.892;-123.962;2023-02-10T10:59:25;102038.45;;;9.47;93.64
51067;BME280;37112;45.892;-123.962;2023-02-10T11:01:42;102041.91;;;9.44;93.76
51067;BME280;37112;45.892;-123.962;2023-02-10T11:04:05;102038.63;;;9.43;93.61
51067;BME280;37112;45.892;-123.962;2023-02-10T11:06:21;102046.64;;;9.42;93.60
51067;BME280;37112;45.892;-123.962;2023-02-10T11:08:38;102047.52;;;9.42;93.71
51067;BME280;37112;45.892;-123.962;2023-02-10T11:10:55;102046.25;;;9.42;93.73
51067;BME280;37112;45.892;-123.962;2023-02-10T11:13:19;102043.74;;;9.43;93.53
51067;BME280;37112;45.892;-123.962;2023-02-10T11:15:37;102044.91;;;9.45;93.61
51067;BME280;37112;45.892;-123.962;2023-02-10T11:17:51;102040.20;;;9.47;93.61
51067;BME280;37112;45.892;-123.962;2023-02-10T11:20:22;102042.98;;;9.48;93.58
51067;BME280;37112;45.892;-123.962;2023-02-10T11:22:36;102041.08;;;9.47;93.65
51067;BME280;37112;45.892;-123.962;2023-02-10T11:24:53;102042.45;;;9.48;93.70
51067;BME280;37112;45.892;-123.962;2023-02-10T11:27:12;102037.96;;;9.50;93.40
51067;BME280;37112;45.892;-123.962;2023-02-10T11:29:26;102040.10;;;9.50;93.25
51067;BME280;37112;45.892;-123.962;2023-02-10T11:31:41;102047.02;;;9.50;93.16